If you wish to contribute or participate in the discussions about articles you are invited to join SKYbrary as a registered user

 Actions

Bahías de Huatulco International Airport

From SKYbrary Wiki

MMBT
Airport
ICAO: MMBT – IATA: HUX
Summary
Name Bahías de Huatulco International Airport
Region South America and Caribbean
Territory Mexico MX.gif
Location Huatulco, Oaxaca
Serving Huatulco
Elevation 141.427 m
464 ft
464 ft141.427 m
Type medium airport
Coordinates 15° 46' 31.14" N, 96° 15' 45.26" W
Runways
Designator Length Width Surface ROPS
7/25 2700 m8,858.268 ft
45 m147.638 ft
ASP yes/yes


METAR
Observation MMBT 201840Z 00000KT 8SM FEW020 31/20 A2994 RMK 8/100
Station Bahias De Huatulco
Date/Time 20 March 2019 18:40:00
Wind direction
Wind speed 00 kts
Lowest cloud amount few clouds
Temperature 31°C
Dew point 20°C
Humidity 52%
QNH hPa
Weather condition n/a

BS
Tag(s) Bird Strike
WX
Tag(s) Cumulonimbus

Bahías de Huatulco International Airport is located at Huatulco, in the state of Oaxaca, Mexico. The airport handles national and international air traffic for the Pacific coast south of the city of Oaxaca

Climatology

Tropical savannah climate (Köppen climate classification Aw)

Maps

Terrain

Loading map...

Airport Layout

Loading map...


Accidents & Serious Incidents at or in vicinity of MMBT

None on SKYbrary